createdAt,value
2019-02-15T00:00:45.049Z,0.55
2019-02-15T00:03:13.735Z,0.48
2019-02-15T00:05:42.508Z,0.35
2019-02-15T00:08:11.261Z,0.31
2019-02-15T00:10:40.095Z,0.30
2019-02-15T00:13:13.630Z,0.31
2019-02-15T00:15:39.063Z,0.24
2019-02-15T00:18:21.314Z,0.27
2019-02-15T00:20:51.688Z,0.10
2019-02-15T00:23:20.436Z,0.14
2019-02-15T00:25:49.181Z,0.12
2019-02-15T00:28:17.976Z,0.11
2019-02-15T00:30:46.820Z,0.14
2019-02-15T00:33:15.438Z,0.17
2019-02-15T00:35:44.157Z,0.17
2019-02-15T00:38:12.996Z,0.15
2019-02-15T00:40:41.746Z,0.18
2019-02-15T00:43:10.431Z,0.22
2019-02-15T00:45:40.749Z,0.23
2019-02-15T00:48:13.932Z,0.27
2019-02-15T00:50:44.377Z,0.33
2019-02-15T00:53:26.671Z,0.35
2019-02-15T00:56:02.923Z,0.26
2019-02-15T00:58:49.650Z,0.19
2019-02-15T01:01:26.487Z,0.12
2019-02-15T01:03:56.766Z,0.11
2019-02-15T01:06:43.062Z,0.00
2019-02-15T01:09:17.998Z,-0.09
2019-02-15T01:11:48.305Z,-0.03
2019-02-15T01:14:17.161Z,-0.02
2019-02-15T01:16:45.904Z,0.05
2019-02-15T01:19:14.525Z,0.05
2019-02-15T01:21:43.220Z,0.03
2019-02-15T01:24:11.897Z,-0.02
2019-02-15T01:26:42.284Z,-0.09
2019-02-15T01:29:12.726Z,-0.12
2019-02-15T01:34:31.131Z,-0.19
2019-02-15T01:37:16.415Z,-0.23
2019-02-15T01:39:46.696Z,-0.25
2019-02-15T01:42:22.952Z,-0.36
2019-02-15T01:44:53.289Z,-0.36
2019-02-15T01:47:23.133Z,-0.39
2019-02-15T01:49:52.659Z,-0.43
2019-02-15T01:52:21.444Z,-0.45
2019-02-15T01:54:50.007Z,-0.37
2019-02-15T01:57:18.906Z,-0.37
2019-02-15T01:59:47.576Z,-0.33
2019-02-15T02:02:16.416Z,-0.38
2019-02-15T02:04:45.467Z,-0.40
2019-02-15T02:07:14.198Z,-0.37
2019-02-15T02:09:42.850Z,-0.35
2019-02-15T02:12:11.638Z,-0.34
2019-02-15T02:14:40.354Z,-0.32
2019-02-15T02:17:09.093Z,-0.33
2019-02-15T02:19:37.925Z,-0.37
2019-02-15T02:22:06.646Z,-0.35
2019-02-15T02:24:35.621Z,-0.35
2019-02-15T02:27:04.973Z,-0.34
2019-02-15T02:29:33.600Z,-0.30
2019-02-15T02:32:02.336Z,-0.35
2019-02-15T02:34:31.017Z,-0.35
2019-02-15T02:36:59.595Z,-0.44
2019-02-15T02:39:28.359Z,-0.42
2019-02-15T02:41:57.013Z,-0.60
2019-02-15T02:44:25.755Z,-0.60
2019-02-15T02:46:54.616Z,-0.66
2019-02-15T02:49:23.279Z,-0.67
2019-02-15T02:51:51.986Z,-0.72
2019-02-15T02:54:20.765Z,-0.75
2019-02-15T02:56:49.464Z,-0.74
2019-02-15T02:59:18.305Z,-0.84
2019-02-15T03:01:47.072Z,-0.83
2019-02-15T03:04:15.820Z,-0.76
2019-02-15T03:06:44.564Z,-0.76
2019-02-15T03:09:13.216Z,-0.77
2019-02-15T03:11:41.914Z,-0.85
2019-02-15T03:14:11.779Z,-0.91
2019-02-15T03:16:40.985Z,-0.88
2019-02-15T03:19:09.734Z,-0.81
2019-02-15T03:21:38.421Z,-0.82
2019-02-15T03:24:07.066Z,-0.89
2019-02-15T03:26:35.771Z,-0.90
2019-02-15T03:29:05.009Z,-0.90
2019-02-15T03:31:33.817Z,-1.53
2019-02-15T03:34:02.540Z,-0.80
2019-02-15T03:36:32.807Z,-0.72
2019-02-15T03:39:03.178Z,-0.64
2019-02-15T03:41:33.471Z,-0.70
2019-02-15T03:44:02.252Z,-0.72
2019-02-15T03:46:31.065Z,-0.76
2019-02-15T03:48:59.667Z,-0.73
2019-02-15T03:51:28.429Z,-0.85
2019-02-15T03:53:57.116Z,-0.85
2019-02-15T03:56:25.790Z,-0.98
2019-02-15T03:58:54.536Z,-0.94
2019-02-15T04:01:23.387Z,-1.10
2019-02-15T04:03:52.211Z,-1.10
2019-02-15T04:06:20.949Z,-1.07
2019-02-15T04:08:49.721Z,-1.14
2019-02-15T04:11:18.537Z,-1.02
2019-02-15T04:13:47.174Z,-1.00
2019-02-15T04:16:15.822Z,-0.99
2019-02-15T04:18:44.539Z,-0.97
2019-02-15T04:21:13.225Z,-0.91
2019-02-15T04:23:42.564Z,-0.96
2019-02-15T04:26:11.265Z,-1.00
2019-02-15T04:28:40.021Z,-0.99
2019-02-15T04:31:08.816Z,-0.91
2019-02-15T04:33:37.756Z,-0.83
2019-02-15T04:36:06.565Z,-0.83
2019-02-15T04:38:35.260Z,-0.95
2019-02-15T04:41:05.030Z,-0.97
2019-02-15T04:43:33.614Z,-1.76
2019-02-15T04:46:02.387Z,-1.08
2019-02-15T04:48:31.172Z,-1.15
2019-02-15T04:50:59.948Z,-1.18
2019-02-15T04:53:28.675Z,-1.21
2019-02-15T04:55:57.469Z,-1.24
2019-02-15T04:58:26.389Z,-1.26
2019-02-15T05:00:55.159Z,-1.27
2019-02-15T05:03:23.988Z,-1.31
2019-02-15T05:05:52.779Z,-1.23
2019-02-15T05:08:21.634Z,-1.30
2019-02-15T05:10:50.377Z,-1.31
2019-02-15T05:13:19.287Z,-1.27
2019-02-15T05:15:47.963Z,-1.30
2019-02-15T05:18:16.688Z,-1.13
2019-02-15T05:20:51.904Z,-0.93
2019-02-15T05:23:20.468Z,-1.06
2019-02-15T05:25:49.269Z,-1.10
2019-02-15T05:28:18.086Z,-1.14
2019-02-15T05:30:46.721Z,-1.27
2019-02-15T05:33:15.649Z,-1.35
2019-02-15T05:35:44.290Z,-1.21
2019-02-15T05:38:12.928Z,-1.33
2019-02-15T05:40:41.713Z,-1.34
2019-02-15T05:43:10.527Z,-1.43
2019-02-15T05:45:39.186Z,-1.42
2019-02-15T05:48:07.935Z,-1.41
2019-02-15T05:50:36.673Z,-1.46
2019-02-15T05:53:05.345Z,-1.39
2019-02-15T05:55:33.959Z,-1.47
2019-02-15T05:58:02.528Z,-1.47
2019-02-15T06:00:43.622Z,-1.49
2019-02-15T06:03:13.791Z,-1.50
2019-02-15T06:05:42.785Z,-1.41
2019-02-15T06:08:11.532Z,-1.37
2019-02-15T06:10:40.342Z,-1.44
2019-02-15T06:13:08.921Z,-1.48
2019-02-15T06:15:37.449Z,-1.53
2019-02-15T06:18:06.187Z,-1.55
2019-02-15T06:20:34.840Z,-1.61
2019-02-15T06:23:03.662Z,-1.54
2019-02-15T06:25:32.331Z,-1.49
2019-02-15T06:28:01.011Z,-1.62
2019-02-15T06:30:29.634Z,-1.63
2019-02-15T06:32:58.321Z,-1.63
2019-02-15T06:35:26.997Z,-1.47
2019-02-15T06:37:55.769Z,-1.47
2019-02-15T06:40:24.666Z,-1.46
2019-02-15T06:42:53.328Z,-1.31
2019-02-15T06:45:25.080Z,-1.44
2019-02-15T06:47:52.457Z,-1.40
2019-02-15T06:50:21.194Z,-1.35
2019-02-15T06:52:49.972Z,-1.41
2019-02-15T06:55:18.663Z,-1.44
2019-02-15T06:57:47.431Z,-1.43
2019-02-15T07:00:34.174Z,-1.35
2019-02-15T07:03:07.251Z,-1.34
2019-02-15T07:05:35.894Z,-1.30
2019-02-15T07:08:05.027Z,-1.31
2019-02-15T07:10:33.771Z,-1.34
2019-02-15T07:13:02.478Z,-1.38
2019-02-15T07:15:33.856Z,-1.44
2019-02-15T07:18:01.735Z,-1.42
2019-02-15T07:20:30.434Z,-1.21
2019-02-15T07:22:59.209Z,-0.96
2019-02-15T07:25:27.981Z,-0.67
2019-02-15T07:27:56.573Z,-0.30
2019-02-15T07:30:25.476Z,-0.34
2019-02-15T07:32:54.169Z,-0.24
2019-02-15T07:35:22.791Z,-0.17
2019-02-15T07:37:51.393Z,0.18
2019-02-15T07:40:20.097Z,0.89
2019-02-15T07:42:48.794Z,1.49
2019-02-15T07:45:17.973Z,2.02
2019-02-15T07:47:46.907Z,2.28
2019-02-15T07:50:15.657Z,2.71
2019-02-15T07:52:44.278Z,3.37
2019-02-15T07:55:12.832Z,3.79
2019-02-15T07:57:41.453Z,4.22
2019-02-15T08:00:13.674Z,4.38
2019-02-15T08:02:42.332Z,4.85
2019-02-15T08:05:12.329Z,5.21
2019-02-15T08:07:40.962Z,5.25
2019-02-15T08:10:12.553Z,4.74
2019-02-15T08:12:41.259Z,4.91
2019-02-15T08:15:11.320Z,5.61
2019-02-15T08:17:39.981Z,6.28
2019-02-15T08:20:14.817Z,6.22
2019-02-15T08:22:43.603Z,6.21
2019-02-15T08:25:12.284Z,6.54
2019-02-15T08:27:40.910Z,6.34
2019-02-15T08:30:12.706Z,6.69
2019-02-15T08:32:41.433Z,6.44
2019-02-15T08:35:11.693Z,6.31
2019-02-15T08:37:57.158Z,6.12
2019-02-15T08:40:28.021Z,5.97
2019-02-15T08:43:08.514Z,6.22
2019-02-15T08:45:42.529Z,6.26
2019-02-15T08:48:15.810Z,6.64
2019-02-15T08:51:00.287Z,6.98
2019-02-15T08:53:47.746Z,7.39
2019-02-15T08:56:31.342Z,7.46
2019-02-15T08:59:15.576Z,7.07
2019-02-15T09:01:57.908Z,7.46
2019-02-15T09:04:42.086Z,7.09
2019-02-15T09:07:18.940Z,7.08
2019-02-15T09:10:01.180Z,7.23
2019-02-15T09:12:45.988Z,8.16
2019-02-15T09:15:18.413Z,8.81
2019-02-15T09:17:48.089Z,9.12
2019-02-15T09:20:16.959Z,8.62
2019-02-15T09:22:45.657Z,9.01
2019-02-15T09:25:14.379Z,9.27
2019-02-15T09:27:50.745Z,9.37
2019-02-15T09:30:19.621Z,9.32
2019-02-15T09:32:48.446Z,9.70
2019-02-15T09:35:17.275Z,9.67
2019-02-15T09:37:46.055Z,9.89
2019-02-15T09:40:14.940Z,9.91
2019-02-15T09:42:43.644Z,9.43
2019-02-15T09:45:13.092Z,9.91
2019-02-15T09:47:41.903Z,10.19
2019-02-15T09:50:12.239Z,10.17
2019-02-15T09:52:41.641Z,10.54
2019-02-15T09:55:10.458Z,10.35
2019-02-15T09:57:39.106Z,10.79
2019-02-15T10:00:10.318Z,11.10
2019-02-15T10:02:39.168Z,11.40
2019-02-15T10:05:09.407Z,11.91
2019-02-15T10:07:38.074Z,11.72
2019-02-15T10:10:11.114Z,12.08
2019-02-15T10:12:39.821Z,11.60
2019-02-15T10:15:11.512Z,12.03
2019-02-15T10:17:40.319Z,12.19
2019-02-15T10:20:10.397Z,12.60
2019-02-15T10:22:39.174Z,12.98
2019-02-15T10:25:09.621Z,12.82
2019-02-15T10:27:38.617Z,12.20
2019-02-15T10:30:10.242Z,12.64
2019-02-15T10:32:39.018Z,13.20
2019-02-15T10:35:11.872Z,12.61
2019-02-15T10:37:40.923Z,13.12
2019-02-15T10:40:11.657Z,12.94
2019-02-15T10:42:40.521Z,12.37
2019-02-15T10:45:15.581Z,13.26
2019-02-15T10:47:44.396Z,13.49
2019-02-15T10:50:13.465Z,13.62
2019-02-15T10:52:42.407Z,12.88
2019-02-15T10:55:11.133Z,13.16
2019-02-15T10:57:39.831Z,13.83
2019-02-15T11:00:21.852Z,13.55
2019-02-15T11:02:50.660Z,13.65
2019-02-15T11:05:20.957Z,13.40
2019-02-15T11:07:49.644Z,14.22
2019-02-15T11:10:18.240Z,14.18
2019-02-15T11:12:46.978Z,14.43
2019-02-15T11:15:17.816Z,14.06
2019-02-15T11:17:46.558Z,14.24
2019-02-15T11:20:18.084Z,14.40
2019-02-15T11:22:46.793Z,14.40
2019-02-15T11:25:15.586Z,14.61
2019-02-15T11:27:44.333Z,14.67
2019-02-15T11:30:16.214Z,14.85
2019-02-15T11:32:44.825Z,15.18
2019-02-15T11:35:14.778Z,15.04
2019-02-15T11:37:43.507Z,15.01
2019-02-15T11:40:14.982Z,15.18
2019-02-15T11:42:43.968Z,14.74
2019-02-15T11:45:15.068Z,14.73
2019-02-15T11:47:43.797Z,14.71
2019-02-15T11:50:15.177Z,14.97
2019-02-15T11:52:43.922Z,15.75
2019-02-15T11:55:12.719Z,15.36
2019-02-15T11:57:41.417Z,15.39
2019-02-15T12:00:18.470Z,15.15
2019-02-15T12:02:47.214Z,15.33
2019-02-15T12:05:15.964Z,15.41
2019-02-15T12:07:44.670Z,15.14
2019-02-15T12:10:14.056Z,15.13
2019-02-15T12:12:44.401Z,15.37
2019-02-15T12:15:13.021Z,15.50
2019-02-15T12:17:41.759Z,15.71
2019-02-15T12:20:16.493Z,15.85
2019-02-15T12:22:45.232Z,15.65
2019-02-15T12:25:13.866Z,15.99
2019-02-15T12:27:42.544Z,15.89
2019-02-15T12:30:13.304Z,15.98
2019-02-15T12:32:42.034Z,16.04
2019-02-15T12:35:15.520Z,16.02
2019-02-15T12:37:44.215Z,16.21
2019-02-15T12:40:14.164Z,16.34
2019-02-15T12:42:42.927Z,16.19
2019-02-15T12:45:14.726Z,16.33
2019-02-15T12:47:43.348Z,16.35
2019-02-15T12:50:15.002Z,16.20
2019-02-15T12:52:43.716Z,16.13
2019-02-15T12:55:12.511Z,16.09
2019-02-15T12:57:41.278Z,16.48
2019-02-15T13:00:15.496Z,16.31
2019-02-15T13:02:44.323Z,16.41
2019-02-15T13:05:14.562Z,16.39
2019-02-15T13:07:43.275Z,16.50
2019-02-15T13:10:16.617Z,16.53
2019-02-15T13:12:45.452Z,16.56
2019-02-15T13:15:14.243Z,16.54
2019-02-15T13:17:42.912Z,16.16
2019-02-15T13:20:12.575Z,16.34
2019-02-15T13:22:41.267Z,16.25
2019-02-15T13:25:09.983Z,16.25
2019-02-15T13:27:38.661Z,16.37
2019-02-15T13:30:10.240Z,16.50
2019-02-15T13:32:39.073Z,16.36
2019-02-15T13:35:11.037Z,16.33
2019-02-15T13:37:39.717Z,16.59
2019-02-15T13:40:09.989Z,16.48
2019-02-15T13:42:38.751Z,16.74
2019-02-15T13:45:10.023Z,16.66
2019-02-15T13:47:38.723Z,16.88
2019-02-15T13:50:13.222Z,16.84
2019-02-15T13:52:41.878Z,16.68
2019-02-15T13:55:11.855Z,16.93
2019-02-15T13:57:40.579Z,17.08
2019-02-15T14:00:14.034Z,17.23
2019-02-15T14:02:42.672Z,17.27
2019-02-15T14:05:13.191Z,17.22
2019-02-15T14:07:41.966Z,17.26
2019-02-15T14:10:13.068Z,17.53
2019-02-15T14:12:47.539Z,17.52
2019-02-15T14:15:16.280Z,17.41
2019-02-15T14:17:48.229Z,17.55
2019-02-15T14:20:15.237Z,17.79
2019-02-15T14:22:43.970Z,17.47
2019-02-15T14:25:14.034Z,17.46
2019-02-15T14:27:42.720Z,17.00
2019-02-15T14:30:14.285Z,17.09
2019-02-15T14:32:42.955Z,17.04
2019-02-15T14:35:14.388Z,16.69
2019-02-15T14:37:43.011Z,16.65
2019-02-15T14:40:14.356Z,16.49
2019-02-15T14:42:43.127Z,16.45
2019-02-15T14:45:15.168Z,16.75
2019-02-15T14:47:43.860Z,16.61
2019-02-15T14:50:12.601Z,16.63
2019-02-15T14:52:41.451Z,16.44
2019-02-15T14:55:11.444Z,16.52
2019-02-15T14:57:41.198Z,17.09
2019-02-15T15:00:12.712Z,17.35
2019-02-15T15:02:41.435Z,17.52
2019-02-15T15:05:12.852Z,17.95
2019-02-15T15:07:41.639Z,17.83
2019-02-15T15:10:11.821Z,17.52
2019-02-15T15:12:40.598Z,17.08
2019-02-15T15:15:12.237Z,16.84
2019-02-15T15:17:40.983Z,16.48
2019-02-15T15:20:13.707Z,16.58
2019-02-15T15:22:42.474Z,16.40
2019-02-15T15:25:13.925Z,16.40
2019-02-15T15:27:42.568Z,16.28
2019-02-15T15:30:15.984Z,16.04
2019-02-15T15:32:44.645Z,16.12
2019-02-15T15:35:13.480Z,15.92
2019-02-15T15:37:42.259Z,15.85
2019-02-15T15:40:16.211Z,15.73
2019-02-15T15:42:44.937Z,15.61
2019-02-15T15:45:13.775Z,15.54
2019-02-15T15:47:42.444Z,15.30
2019-02-15T15:50:12.994Z,15.15
2019-02-15T15:52:41.786Z,15.13
2019-02-15T15:55:12.156Z,14.99
2019-02-15T15:57:40.899Z,14.93
2019-02-15T16:00:12.455Z,14.71
2019-02-15T16:02:41.207Z,14.48
2019-02-15T16:05:14.837Z,14.51
2019-02-15T16:07:44.647Z,14.42
2019-02-15T16:10:17.097Z,14.44
2019-02-15T16:12:45.792Z,14.27
2019-02-15T16:15:15.157Z,14.04
2019-02-15T16:17:44.030Z,13.89
2019-02-15T16:20:14.249Z,13.73
2019-02-15T16:22:43.967Z,13.65
2019-02-15T16:25:12.807Z,13.50
2019-02-15T16:27:43.528Z,13.28
2019-02-15T16:30:14.432Z,12.97
2019-02-15T16:32:43.209Z,12.86
2019-02-15T16:35:11.898Z,12.87
2019-02-15T16:37:40.661Z,12.84
2019-02-15T16:40:12.274Z,12.76
2019-02-15T16:42:41.088Z,12.63
2019-02-15T16:45:12.444Z,12.45
2019-02-15T16:47:41.186Z,12.25
2019-02-15T16:50:09.975Z,12.07
2019-02-15T16:52:38.734Z,11.91
2019-02-15T16:55:12.699Z,11.76
2019-02-15T16:57:39.891Z,11.57
2019-02-15T17:00:11.838Z,11.34
2019-02-15T17:02:40.574Z,11.15
2019-02-15T17:05:09.362Z,10.93
2019-02-15T17:07:38.022Z,10.78
2019-02-15T17:10:09.113Z,10.63
2019-02-15T17:12:37.923Z,10.52
2019-02-15T17:15:11.928Z,10.41
2019-02-15T17:17:40.572Z,10.27
2019-02-15T17:20:12.039Z,10.05
2019-02-15T17:22:40.656Z,9.85
2019-02-15T17:25:13.558Z,9.77
2019-02-15T17:27:42.260Z,9.61
2019-02-15T17:30:12.442Z,9.50
2019-02-15T17:32:41.440Z,9.27
2019-02-15T17:35:12.068Z,9.20
2019-02-15T17:37:40.803Z,9.09
2019-02-15T17:40:12.119Z,8.99
2019-02-15T17:42:40.892Z,9.08
2019-02-15T17:45:12.104Z,8.92
2019-02-15T17:47:40.854Z,8.73
2019-02-15T17:50:12.142Z,8.65
2019-02-15T17:52:41.432Z,8.50
2019-02-15T17:55:11.910Z,8.27
2019-02-15T17:57:52.391Z,8.21
2019-02-15T18:00:23.078Z,8.12
2019-02-15T18:02:51.708Z,7.96
2019-02-15T18:05:20.346Z,7.86
2019-02-15T18:07:50.195Z,7.68
2019-02-15T18:10:18.881Z,7.57
2019-02-15T18:12:47.496Z,7.47
2019-02-15T18:15:16.145Z,7.41
2019-02-15T18:17:44.903Z,7.37
2019-02-15T18:20:13.741Z,7.34
2019-02-15T18:22:42.464Z,7.30
2019-02-15T18:25:11.094Z,7.21
2019-02-15T18:27:39.807Z,7.21
2019-02-15T18:30:14.454Z,7.20
2019-02-15T18:32:43.226Z,7.21
2019-02-15T18:35:12.912Z,7.11
2019-02-15T18:37:41.494Z,6.94
2019-02-15T18:40:14.414Z,6.88
2019-02-15T18:42:43.030Z,6.62
2019-02-15T18:45:14.540Z,6.56
2019-02-15T18:47:43.271Z,6.18
2019-02-15T18:50:12.022Z,6.21
2019-02-15T18:52:41.513Z,6.06
2019-02-15T18:55:11.567Z,5.98
2019-02-15T18:57:41.833Z,5.93
2019-02-15T19:00:15.594Z,5.89
2019-02-15T19:02:47.184Z,5.89
2019-02-15T19:05:16.404Z,5.87
2019-02-15T19:07:45.738Z,5.81
2019-02-15T19:10:23.147Z,5.78
2019-02-15T19:12:52.193Z,5.60
2019-02-15T19:15:20.972Z,5.51
2019-02-15T19:17:49.702Z,5.46
2019-02-15T19:20:18.635Z,5.41
2019-02-15T19:22:57.837Z,5.38
2019-02-15T19:25:27.427Z,5.38
2019-02-15T19:27:56.133Z,5.38
2019-02-15T19:30:30.783Z,5.35
2019-02-15T19:33:00.650Z,5.23
2019-02-15T19:35:29.627Z,5.14
2019-02-15T19:37:58.614Z,5.02
2019-02-15T19:40:27.453Z,4.96
2019-02-15T19:43:02.112Z,4.86
2019-02-15T19:45:30.835Z,4.76
2019-02-15T19:48:00.407Z,4.72
2019-02-15T19:50:29.328Z,4.67
2019-02-15T19:52:57.968Z,4.65
2019-02-15T19:55:26.781Z,4.68
2019-02-15T19:57:55.324Z,4.68
2019-02-15T20:00:24.115Z,4.76
2019-02-15T20:02:54.153Z,4.74
2019-02-15T20:05:23.867Z,4.71
2019-02-15T20:07:52.979Z,4.65
2019-02-15T20:10:24.831Z,4.63
2019-02-15T20:12:54.093Z,4.56
2019-02-15T20:15:22.892Z,4.48
2019-02-15T20:17:52.307Z,4.31
2019-02-15T20:20:22.032Z,4.30
2019-02-15T20:22:52.743Z,4.00
2019-02-15T20:25:23.320Z,3.90
2019-02-15T20:27:52.823Z,4.13
2019-02-15T20:30:31.551Z,4.05
2019-02-15T20:33:01.356Z,4.01
2019-02-15T20:35:30.045Z,3.98
2019-02-15T20:37:59.855Z,3.98
2019-02-15T20:40:31.092Z,3.97
2019-02-15T20:43:00.007Z,3.99
2019-02-15T20:45:30.571Z,4.03
2019-02-15T20:48:12.034Z,3.89
2019-02-15T20:50:38.352Z,3.80
2019-02-15T20:53:07.448Z,3.80
2019-02-15T20:55:36.246Z,3.73
2019-02-15T20:58:05.045Z,3.71
2019-02-15T21:00:33.930Z,3.65
2019-02-15T21:03:02.776Z,3.61
2019-02-15T21:05:31.636Z,3.63
2019-02-15T21:08:00.751Z,3.65
2019-02-15T21:10:29.826Z,3.65
2019-02-15T21:12:58.840Z,3.66
2019-02-15T21:15:27.661Z,3.69
2019-02-15T21:17:56.362Z,3.60
2019-02-15T21:20:25.261Z,3.61
2019-02-15T21:22:54.137Z,3.64
2019-02-15T21:25:22.884Z,3.51
2019-02-15T21:27:51.552Z,3.53
2019-02-15T21:30:20.809Z,3.38
2019-02-15T21:32:49.551Z,3.42
2019-02-15T21:35:18.190Z,3.50
2019-02-15T21:37:47.471Z,3.57
2019-02-15T21:40:17.916Z,3.35
2019-02-15T21:42:47.346Z,3.08
2019-02-15T21:45:16.952Z,2.99
2019-02-15T21:47:46.478Z,2.93
2019-02-15T21:50:17.600Z,2.89
2019-02-15T21:52:46.653Z,2.79
2019-02-15T21:55:19.789Z,2.58
2019-02-15T21:57:48.409Z,2.89
2019-02-15T22:00:20.260Z,2.92
2019-02-15T22:02:49.007Z,2.84
2019-02-15T22:05:17.975Z,2.81
2019-02-15T22:07:46.674Z,2.69
2019-02-15T22:10:15.456Z,2.44
2019-02-15T22:12:44.206Z,2.32
2019-02-15T22:15:16.131Z,2.31
2019-02-15T22:17:44.884Z,2.22
2019-02-15T22:20:26.372Z,2.38
2019-02-15T22:22:48.350Z,2.44
2019-02-15T22:25:17.042Z,2.34
2019-02-15T22:27:45.682Z,2.27
2019-02-15T22:30:17.189Z,2.27
2019-02-15T22:32:45.862Z,2.26
2019-02-15T22:35:14.516Z,2.31
2019-02-15T22:37:43.181Z,2.45
2019-02-15T22:40:29.768Z,2.44
2019-02-15T22:43:04.558Z,2.38
2019-02-15T22:45:33.343Z,2.43
2019-02-15T22:48:02.121Z,2.44
2019-02-15T22:50:36.096Z,2.44
2019-02-15T22:53:01.425Z,2.32
2019-02-15T22:55:30.568Z,2.20
2019-02-15T22:57:59.362Z,2.19
2019-02-15T23:00:50.458Z,2.31
2019-02-15T23:03:24.847Z,2.29
2019-02-15T23:05:53.467Z,2.50
2019-02-15T23:08:22.291Z,2.52
2019-02-15T23:10:51.148Z,2.47
2019-02-15T23:13:19.932Z,2.15
2019-02-15T23:15:48.794Z,2.00
2019-02-15T23:18:19.021Z,1.92
2019-02-15T23:20:48.189Z,1.88
2019-02-15T23:23:17.072Z,1.87
2019-02-15T23:25:45.820Z,1.78
2019-02-15T23:28:14.469Z,1.69
2019-02-15T23:30:43.223Z,1.66
2019-02-15T23:33:11.932Z,1.69
2019-02-15T23:35:40.632Z,1.61
2019-02-15T23:38:09.429Z,1.54
2019-02-15T23:40:38.116Z,1.64
2019-02-15T23:43:06.885Z,1.72
2019-02-15T23:45:35.780Z,1.69
2019-02-15T23:48:04.986Z,1.76
2019-02-15T23:50:33.812Z,1.43
2019-02-15T23:53:02.588Z,1.48
2019-02-15T23:55:31.461Z,1.50
2019-02-15T23:58:00.150Z,1.58
